Time;durP1;ratioP1;P1;durP2;ratioP2;P2;SDS_P1;SDS_P2;PMS_P1;PMS_P2;Temp;Humidity;BMP_temperature;BMP_pressure;BME280_temperature;BME280_humidity;BME280_pressure;Samples;Min_cycle;Max_cycle;Signal;HPM_P1;HPM_P2
2024/03/09 00:00:44;;;;;;;19.10;12.97;;;10.10;91.70;;;;;;4930797;29;20456;-29
2024/03/09 00:03:12;;;;;;;18.47;12.70;;;10.10;91.80;;;;;;4930056;29;21286;-28
2024/03/09 00:05:41;;;;;;;18.87;12.80;;;10.10;91.90;;;;;;4928366;28;20468;-28
2024/03/09 00:08:11;;;;;;;17.47;13.60;;;10.10;91.80;;;;;;4908290;29;20574;-30
2024/03/09 00:10:37;;;;;;;17.90;13.20;;;10.10;91.80;;;;;;4925371;29;21326;-28
2024/03/09 00:13:09;;;;;;;21.83;13.93;;;10.10;91.80;;;;;;4925340;29;20432;-29
2024/03/09 00:15:36;;;;;;;19.50;12.43;;;10.10;91.80;;;;;;4930127;29;21172;-28
2024/03/09 00:18:06;;;;;;;15.00;13.40;;;10.10;91.90;;;;;;4907692;29;20475;-29
2024/03/09 00:20:38;;;;;;;16.93;13.90;;;9.70;92.20;;;;;;4922496;29;20535;-28
2024/03/09 00:23:09;;;;;;;17.23;11.53;;;10.00;91.90;;;;;;4923513;29;20511;-30
2024/03/09 00:25:37;;;;;;;17.27;12.20;;;10.00;91.80;;;;;;4924059;29;20531;-29
2024/03/09 00:28:06;;;;;;;18.07;12.33;;;10.10;91.90;;;;;;4891498;29;21260;-28
2024/03/09 00:30:35;;;;;;;15.77;12.70;;;10.00;91.80;;;;;;4923775;29;20487;-27
2024/03/09 00:33:05;;;;;;;20.53;13.90;;;10.00;91.90;;;;;;4924245;29;20874;-27
2024/03/09 00:35:33;;;;;;;19.43;13.63;;;10.00;91.90;;;;;;4921542;29;20444;-27
2024/03/09 00:38:00;;;;;;;18.63;13.00;;;9.90;92.40;;;;;;4923278;29;20575;-31
2024/03/09 00:40:30;;;;;;;16.50;12.13;;;10.00;92.00;;;;;;4922257;29;20954;-29
2024/03/09 00:43:04;;;;;;;18.73;12.87;;;10.00;91.90;;;;;;4906573;29;20417;-29
2024/03/09 00:45:30;;;;;;;16.73;12.70;;;9.90;92.50;;;;;;4921335;29;20494;-29
2024/03/09 00:48:00;;;;;;;20.80;13.50;;;9.90;92.50;;;;;;4905393;29;20431;-29
2024/03/09 00:50:26;;;;;;;20.57;13.50;;;9.90;92.60;;;;;;4921868;29;20463;-28
2024/03/09 00:52:52;;;;;;;18.67;13.53;;;9.90;92.60;;;;;;4923368;29;20454;-29
2024/03/09 00:55:26;;;;;;;17.00;13.13;;;9.90;92.60;;;;;;4922354;29;20458;-27
2024/03/09 00:57:53;;;;;;;18.77;13.80;;;9.90;92.60;;;;;;4917253;29;20909;-28
2024/03/09 01:00:23;;;;;;;16.53;12.70;;;9.90;92.60;;;;;;4922715;29;20421;-28
2024/03/09 01:02:52;;;;;;;21.40;14.70;;;10.10;92.20;;;;;;4904249;29;20680;-29
2024/03/09 01:05:26;;;;;;;19.90;14.10;;;9.90;92.70;;;;;;4921950;29;20483;-29
2024/03/09 01:07:53;;;;;;;18.40;13.07;;;9.90;92.60;;;;;;4919192;29;20522;-28
2024/03/09 01:10:23;;;;;;;18.13;14.07;;;9.90;92.60;;;;;;4920883;29;20435;-28
2024/03/09 01:12:51;;;;;;;19.80;14.03;;;9.80;92.50;;;;;;4883606;29;20431;-29
2024/03/09 01:15:18;;;;;;;18.23;13.23;;;9.80;90.10;;;;;;4919918;29;20539;-28
2024/03/09 01:17:44;;;;;;;20.20;12.73;;;9.80;90.10;;;;;;4906340;29;20480;-28
2024/03/09 01:20:14;;;;;;;20.00;13.30;;;9.80;90.10;;;;;;4907737;29;20459;-28
2024/03/09 01:22:46;;;;;;;18.57;13.83;;;9.80;90.10;;;;;;4907939;29;21248;-28
2024/03/09 01:25:14;;;;;;;19.57;13.27;;;9.80;90.20;;;;;;4922913;29;21046;-29
2024/03/09 01:27:42;;;;;;;18.57;13.30;;;9.80;90.20;;;;;;4923384;29;20440;-29
2024/03/09 01:30:09;;;;;;;18.10;13.43;;;9.70;90.10;;;;;;4924652;29;20428;-30
2024/03/09 01:32:43;;;;;;;18.70;14.30;;;9.70;90.40;;;;;;4926484;29;21143;-28
2024/03/09 01:35:11;;;;;;;19.70;12.67;;;9.70;90.20;;;;;;4907360;29;20960;-28
2024/03/09 01:37:38;;;;;;;16.97;12.60;;;9.70;90.20;;;;;;4924483;29;20507;-28
2024/03/09 01:40:04;;;;;;;21.53;14.03;;;9.70;90.20;;;;;;4924562;29;20440;-27
2024/03/09 01:42:30;;;;;;;19.23;13.97;;;9.70;90.20;;;;;;4924718;28;20420;-28
2024/03/09 01:44:58;;;;;;;19.50;13.63;;;9.70;90.20;;;;;;4924569;29;20448;-29
2024/03/09 01:47:29;;;;;;;18.83;12.60;;;9.70;90.30;;;;;;4922943;29;20867;-29
2024/03/09 01:49:58;;;;;;;18.67;13.70;;;9.70;90.30;;;;;;4907338;29;20447;-29
2024/03/09 01:52:31;;;;;;;17.70;12.90;;;9.70;90.30;;;;;;4928839;29;20539;-28
2024/03/09 01:54:59;;;;;;;18.10;12.70;;;9.60;90.30;;;;;;4906813;29;21042;-28
2024/03/09 01:57:27;;;;;;;19.87;13.87;;;9.70;90.40;;;;;;4928698;29;20484;-30
2024/03/09 01:59:55;;;;;;;17.93;13.67;;;9.60;90.40;;;;;;4925653;29;20444;-29
2024/03/09 02:02:25;;;;;;;20.80;14.37;;;9.60;90.40;;;;;;4926640;29;20480;-29
2024/03/09 02:04:55;;;;;;;18.73;13.33;;;9.60;90.40;;;;;;4907980;29;20435;-29
2024/03/09 02:07:24;;;;;;;18.00;13.50;;;9.60;90.40;;;;;;4924904;29;21040;-28
2024/03/09 02:09:52;;;;;;;18.33;13.93;;;9.60;90.40;;;;;;4923335;29;20428;-29
2024/03/09 02:12:23;;;;;;;20.20;13.77;;;9.60;90.40;;;;;;4924718;29;20432;-29
2024/03/09 02:14:54;;;;;;;20.40;14.40;;;9.60;90.40;;;;;;4924219;29;20448;-28
2024/03/09 02:17:24;;;;;;;15.90;12.50;;;9.60;90.40;;;;;;4924148;29;20472;-29
2024/03/09 02:19:52;;;;;;;19.00;13.63;;;9.60;90.50;;;;;;4892067;29;20527;-29
2024/03/09 02:22:21;;;;;;;19.80;13.37;;;9.60;90.50;;;;;;4924786;29;20730;-29
2024/03/09 02:24:58;;;;;;;19.40;13.97;;;9.60;90.50;;;;;;4906998;29;20432;-28
2024/03/09 02:27:31;;;;;;;18.40;12.83;;;9.60;90.50;;;;;;4924487;29;20472;-29
2024/03/09 02:29:57;;;;;;;17.20;12.90;;;9.60;90.50;;;;;;4918335;29;20424;-28
2024/03/09 02:32:24;;;;;;;19.97;13.33;;;9.50;90.50;;;;;;4908003;29;20439;-29
2024/03/09 02:34:52;;;;;;;18.50;12.70;;;9.50;90.50;;;;;;4908188;29;20560;-30
2024/03/09 02:37:20;;;;;;;17.30;11.70;;;9.50;90.50;;;;;;4925105;29;20562;-28
2024/03/09 02:39:46;;;;;;;19.30;13.10;;;9.50;90.50;;;;;;4924730;29;21039;-28
2024/03/09 02:42:13;;;;;;;19.13;13.83;;;9.50;90.90;;;;;;4923243;29;20431;-29
2024/03/09 02:44:42;;;;;;;18.30;11.97;;;9.50;90.60;;;;;;4924150;29;20420;-28
2024/03/09 02:47:10;;;;;;;18.13;13.83;;;9.50;90.60;;;;;;4909605;29;20867;-29
2024/03/09 02:49:36;;;;;;;17.80;12.63;;;9.50;90.60;;;;;;4925669;29;20573;-29
2024/03/09 02:52:02;;;;;;;19.63;13.07;;;9.50;90.60;;;;;;4906500;29;20428;-28
2024/03/09 02:54:33;;;;;;;18.93;12.83;;;9.50;90.60;;;;;;4907524;29;20452;-29
2024/03/09 02:57:06;;;;;;;17.23;12.40;;;9.40;90.60;;;;;;4920521;29;20814;-29
2024/03/09 02:59:33;;;;;;;16.30;12.93;;;9.40;90.60;;;;;;4923997;29;20480;-28
2024/03/09 03:02:13;;;;;;;16.93;11.80;;;9.40;90.70;;;;;;4925659;29;20416;-28
2024/03/09 03:04:42;;;;;;;21.17;12.80;;;9.40;90.70;;;;;;4926649;29;20433;-28
2024/03/09 03:07:10;;;;;;;18.87;13.50;;;9.40;90.70;;;;;;4922269;29;21246;-29
2024/03/09 03:09:44;;;;;;;19.17;13.20;;;9.40;90.70;;;;;;4921565;29;20451;-28
2024/03/09 03:12:12;;;;;;;17.13;12.50;;;9.40;90.80;;;;;;4922524;29;20479;-28
2024/03/09 03:14:43;;;;;;;16.80;12.10;;;9.40;90.80;;;;;;4905585;29;20440;-29
2024/03/09 03:17:12;;;;;;;17.40;12.00;;;9.40;90.90;;;;;;4891057;29;20477;-29
2024/03/09 03:19:38;;;;;;;17.90;11.67;;;9.40;90.90;;;;;;4921381;29;20548;-29
2024/03/09 03:22:05;;;;;;;15.87;11.63;;;9.40;90.90;;;;;;4923579;29;20444;-30
2024/03/09 03:24:31;;;;;;;16.80;11.63;;;9.40;90.90;;;;;;4923312;29;20531;-30
2024/03/09 03:27:00;;;;;;;16.90;11.77;;;9.40;90.90;;;;;;4930725;29;20448;-30
2024/03/09 03:29:32;;;;;;;16.50;11.77;;;9.30;91.00;;;;;;4907555;29;20445;-29
2024/03/09 03:32:05;;;;;;;13.07;10.97;;;9.30;91.00;;;;;;4923047;29;21127;-29
2024/03/09 03:34:33;;;;;;;17.17;11.00;;;9.30;91.40;;;;;;4910923;29;20459;-29
2024/03/09 03:36:59;;;;;;;16.70;11.90;;;9.30;91.00;;;;;;4919319;29;21283;-33
2024/03/09 03:39:27;;;;;;;14.30;11.50;;;9.30;91.10;;;;;;4906721;29;20463;-30
2024/03/09 03:41:53;;;;;;;17.20;11.30;;;9.30;91.10;;;;;;4926930;29;20503;-28
2024/03/09 03:44:19;;;;;;;17.67;11.93;;;9.30;91.10;;;;;;4905232;29;20446;-31
2024/03/09 03:46:45;;;;;;;15.27;10.90;;;9.30;91.20;;;;;;4922120;29;20921;-29
2024/03/09 03:49:11;;;;;;;15.80;12.20;;;9.30;91.20;;;;;;4921082;29;20436;-31
2024/03/09 03:51:39;;;;;;;15.80;11.00;;;9.30;91.20;;;;;;4921268;29;20471;-33
2024/03/09 03:54:07;;;;;;;15.27;11.53;;;9.30;91.20;;;;;;4923412;28;21039;-31
2024/03/09 03:56:36;;;;;;;14.90;11.30;;;9.30;91.20;;;;;;4922284;29;20448;-30
2024/03/09 03:59:05;;;;;;;14.13;10.83;;;9.30;91.30;;;;;;4904304;29;20475;-30
2024/03/09 04:01:34;;;;;;;14.80;10.63;;;9.30;91.30;;;;;;4920198;29;20994;-29
2024/03/09 04:04:02;;;;;;;16.07;10.70;;;9.30;91.30;;;;;;4915307;29;20527;-30
2024/03/09 04:06:29;;;;;;;12.60;9.43;;;9.20;91.30;;;;;;4920939;29;21043;-31
2024/03/09 04:08:57;;;;;;;13.97;10.70;;;9.20;91.30;;;;;;4889167;29;21133;-32
2024/03/09 04:11:32;;;;;;;15.00;10.53;;;9.20;91.30;;;;;;4903214;29;20823;-30
2024/03/09 04:13:59;;;;;;;14.03;10.03;;;9.20;91.30;;;;;;4914948;29;20452;-30
2024/03/09 04:16:27;;;;;;;13.07;10.10;;;9.20;91.40;;;;;;4921191;29;20828;-32
2024/03/09 04:18:53;;;;;;;14.37;10.60;;;9.20;91.40;;;;;;4904200;29;20841;-29
2024/03/09 04:21:19;;;;;;;14.60;9.87;;;9.20;91.40;;;;;;4921247;29;20434;-32
2024/03/09 04:23:46;;;;;;;15.03;10.03;;;9.20;91.40;;;;;;4919519;29;20423;-29
2024/03/09 04:26:14;;;;;;;14.10;10.60;;;9.20;91.40;;;;;;4920498;29;21110;-32
2024/03/09 04:28:43;;;;;;;13.27;9.43;;;9.20;91.40;;;;;;4917378;29;20436;-29
2024/03/09 04:31:11;;;;;;;13.70;10.00;;;9.20;91.40;;;;;;4889667;29;20495;-32
2024/03/09 04:33:37;;;;;;;11.37;9.40;;;9.20;91.40;;;;;;4921223;29;20856;-34
2024/03/09 04:36:06;;;;;;;14.43;10.40;;;9.20;91.40;;;;;;4903713;29;20459;-32
2024/03/09 04:38:35;;;;;;;12.20;8.80;;;9.20;91.40;;;;;;4920227;29;20471;-30
2024/03/09 04:41:02;;;;;;;12.53;9.60;;;9.20;91.50;;;;;;4918061;28;20551;-29
2024/03/09 04:43:38;;;;;;;12.70;9.27;;;9.20;91.60;;;;;;4906351;29;20490;-29
2024/03/09 04:46:07;;;;;;;13.73;9.63;;;9.20;91.50;;;;;;4920304;29;20467;-31
2024/03/09 04:48:37;;;;;;;13.20;9.30;;;9.20;91.60;;;;;;4922744;29;20468;-33
2024/03/09 04:51:03;;;;;;;12.70;9.13;;;9.10;91.50;;;;;;4922095;29;20948;-31
2024/03/09 04:53:29;;;;;;;11.00;9.33;;;9.10;91.50;;;;;;4926247;29;20486;-30
2024/03/09 04:55:57;;;;;;;12.17;9.40;;;9.10;91.60;;;;;;4904202;29;20510;-32
2024/03/09 04:58:28;;;;;;;12.43;8.87;;;9.10;91.60;;;;;;4920061;29;20474;-29
2024/03/09 05:00:54;;;;;;;13.57;9.60;;;9.10;91.60;;;;;;4920373;29;20451;-35
2024/03/09 05:03:21;;;;;;;12.07;9.30;;;9.10;91.70;;;;;;4903878;29;20444;-28
2024/03/09 05:05:46;;;;;;;13.30;8.83;;;9.10;91.70;;;;;;4904028;29;20479;-30
2024/03/09 05:08:15;;;;;;;13.10;9.80;;;9.10;91.70;;;;;;4920820;29;20574;-30
2024/03/09 05:10:43;;;;;;;12.17;9.10;;;9.10;91.80;;;;;;4922905;28;20443;-33
2024/03/09 05:13:09;;;;;;;12.27;9.73;;;9.10;91.80;;;;;;4919278;29;20435;-29
2024/03/09 05:15:36;;;;;;;14.37;9.77;;;9.10;91.80;;;;;;4902516;29;20491;-29
2024/03/09 05:18:03;;;;;;;13.90;9.63;;;9.10;91.80;;;;;;4894011;29;21147;-32
2024/03/09 05:20:32;;;;;;;13.63;9.07;;;9.10;91.80;;;;;;4919654;29;20464;-28
2024/03/09 05:23:07;;;;;;;13.47;9.17;;;9.10;91.90;;;;;;4915693;29;20468;-29
2024/03/09 05:25:33;;;;;;;13.97;9.90;;;9.10;91.90;;;;;;4921741;29;20444;-31
2024/03/09 05:27:59;;;;;;;12.23;9.37;;;9.10;91.90;;;;;;4907591;29;20440;-32
2024/03/09 05:30:29;;;;;;;13.20;9.37;;;9.10;91.90;;;;;;4887133;29;20467;-31
2024/03/09 05:33:06;;;;;;;11.40;8.20;;;9.10;91.90;;;;;;4920308;29;20459;-32
2024/03/09 05:35:35;;;;;;;12.37;9.47;;;9.10;91.90;;;;;;4923208;29;20451;-31
2024/03/09 05:38:04;;;;;;;13.03;9.20;;;9.10;91.90;;;;;;4919719;29;20484;-35
2024/03/09 05:40:33;;;;;;;10.90;9.07;;;9.10;91.90;;;;;;4917112;29;21161;-30
2024/03/09 05:43:02;;;;;;;12.53;10.33;;;9.10;91.90;;;;;;4901344;29;20480;-29
2024/03/09 05:45:28;;;;;;;10.60;9.10;;;9.10;92.00;;;;;;4905543;29;20498;-30
2024/03/09 05:47:58;;;;;;;10.97;8.90;;;9.00;92.00;;;;;;4919068;29;20435;-30
2024/03/09 05:50:28;;;;;;;11.77;8.43;;;9.10;92.00;;;;;;4918600;29;20436;-32
2024/03/09 05:52:59;;;;;;;18.07;11.10;;;9.10;92.10;;;;;;4918595;29;20428;-30
2024/03/09 05:55:25;;;;;;;12.90;9.63;;;9.00;92.10;;;;;;4919404;29;20461;-31
2024/03/09 05:57:53;;;;;;;10.90;9.13;;;9.00;92.10;;;;;;4918555;29;20555;-32
2024/03/09 06:00:27;;;;;;;12.80;10.03;;;9.00;92.10;;;;;;4901833;29;20436;-30
2024/03/09 06:02:57;;;;;;;11.40;8.90;;;9.10;92.50;;;;;;4901575;29;20440;-29
2024/03/09 06:05:28;;;;;;;13.13;9.07;;;9.00;92.10;;;;;;4907638;29;20451;-33
2024/03/09 06:07:57;;;;;;;10.60;8.93;;;9.10;92.20;;;;;;4922137;29;21030;-30
2024/03/09 06:10:24;;;;;;;12.10;9.00;;;9.00;92.10;;;;;;4907488;29;20431;-29
2024/03/09 06:12:54;;;;;;;11.60;8.70;;;9.00;92.10;;;;;;4921147;29;20784;-32
2024/03/09 06:15:25;;;;;;;10.70;9.37;;;9.00;92.20;;;;;;4886317;29;20457;-29
2024/03/09 06:17:55;;;;;;;15.30;8.97;;;9.00;92.20;;;;;;4919575;29;21090;-32
2024/03/09 06:20:27;;;;;;;14.67;10.10;;;9.00;92.20;;;;;;4907435;29;20450;-31
2024/03/09 06:22:54;;;;;;;11.60;9.00;;;9.00;92.20;;;;;;4921049;29;20481;-29
2024/03/09 06:25:25;;;;;;;11.80;8.90;;;9.00;92.20;;;;;;4905486;29;20439;-30
2024/03/09 06:28:02;;;;;;;11.33;8.43;;;9.00;92.30;;;;;;4924877;29;20420;-30
2024/03/09 06:30:28;;;;;;;11.00;8.60;;;9.00;92.20;;;;;;4923430;29;20740;-30
2024/03/09 06:33:01;;;;;;;10.00;8.20;;;9.00;92.30;;;;;;4919122;29;20444;-31
2024/03/09 06:35:27;;;;;;;12.00;9.17;;;9.00;92.30;;;;;;4905007;29;20463;-33
2024/03/09 06:38:08;;;;;;;11.30;8.53;;;9.00;92.30;;;;;;4920488;29;20491;-30
2024/03/09 06:40:41;;;;;;;11.90;8.67;;;9.00;92.30;;;;;;4918709;29;20448;-29
2024/03/09 06:43:09;;;;;;;11.97;8.80;;;9.00;92.40;;;;;;4904462;29;20515;-31
2024/03/09 06:45:37;;;;;;;13.83;9.33;;;9.00;92.40;;;;;;4919878;29;20600;-30
2024/03/09 06:48:04;;;;;;;11.93;8.80;;;9.00;92.50;;;;;;4921126;29;21124;-32
2024/03/09 06:50:31;;;;;;;11.50;8.90;;;9.00;92.50;;;;;;4920383;29;20495;-31
2024/03/09 06:53:00;;;;;;;11.47;8.63;;;9.00;92.50;;;;;;4915846;29;20684;-31
2024/03/09 06:55:29;;;;;;;11.27;9.20;;;9.00;92.50;;;;;;4920657;29;20452;-31
2024/03/09 06:57:56;;;;;;;10.80;8.90;;;9.00;92.50;;;;;;4906917;29;21011;-29
2024/03/09 07:00:28;;;;;;;14.43;9.13;;;9.00;92.60;;;;;;4903401;29;20585;-31
2024/03/09 07:03:00;;;;;;;12.53;9.50;;;9.00;92.60;;;;;;4924366;29;20931;-30
2024/03/09 07:05:34;;;;;;;12.73;9.43;;;9.00;92.60;;;;;;4905390;29;20468;-33
2024/03/09 07:08:03;;;;;;;12.77;8.77;;;9.00;92.60;;;;;;4923878;29;20519;-30
2024/03/09 07:10:30;;;;;;;11.47;9.07;;;9.00;92.60;;;;;;4921688;29;20436;-31
2024/03/09 07:13:01;;;;;;;10.53;8.93;;;8.90;92.70;;;;;;4888027;29;21015;-30
2024/03/09 07:15:28;;;;;;;11.23;8.73;;;9.00;92.70;;;;;;4903362;29;20448;-32
2024/03/09 07:17:54;;;;;;;11.30;8.87;;;9.00;92.70;;;;;;4920585;29;20752;-32
2024/03/09 07:20:27;;;;;;;14.47;9.20;;;9.00;92.60;;;;;;4902407;29;20444;-31
2024/03/09 07:22:54;;;;;;;11.90;8.50;;;9.00;92.60;;;;;;4916580;29;21149;-29
2024/03/09 07:25:27;;;;;;;12.93;8.53;;;9.00;92.50;;;;;;4923827;29;20445;-30
2024/03/09 07:27:59;;;;;;;11.83;9.17;;;9.00;92.50;;;;;;4919031;29;20511;-31
2024/03/09 07:30:25;;;;;;;10.80;8.50;;;9.00;92.50;;;;;;4925399;29;20439;-29
2024/03/09 07:32:53;;;;;;;10.80;8.70;;;9.00;92.60;;;;;;4907291;29;20475;-30
2024/03/09 07:35:20;;;;;;;13.57;10.87;;;8.90;92.50;;;;;;4905187;29;20529;-30
2024/03/09 07:37:53;;;;;;;11.67;9.50;;;8.90;92.50;;;;;;4902684;29;20471;-29
2024/03/09 07:40:23;;;;;;;12.50;9.10;;;9.00;92.50;;;;;;4902704;29;20460;-32
2024/03/09 07:42:50;;;;;;;13.13;9.03;;;9.00;92.50;;;;;;4920968;29;20460;-30
2024/03/09 07:45:16;;;;;;;12.63;9.40;;;9.00;92.60;;;;;;4892445;29;21124;-30
2024/03/09 07:47:45;;;;;;;16.40;9.60;;;9.00;92.60;;;;;;4903758;29;20472;-29
2024/03/09 07:50:14;;;;;;;13.03;10.23;;;9.00;92.60;;;;;;4888689;29;20428;-35
2024/03/09 07:52:46;;;;;;;13.53;10.20;;;9.00;92.50;;;;;;4918297;29;20499;-31
2024/03/09 07:55:15;;;;;;;13.57;9.40;;;9.00;92.40;;;;;;4922140;29;20453;-31
2024/03/09 07:57:43;;;;;;;16.03;10.53;;;9.00;92.50;;;;;;4903041;29;20483;-29
2024/03/09 08:00:19;;;;;;;13.60;9.93;;;9.00;92.40;;;;;;4911758;29;20427;-33
2024/03/09 08:02:46;;;;;;;15.30;9.23;;;9.00;92.40;;;;;;4906979;29;20468;-31
2024/03/09 08:05:14;;;;;;;12.03;9.07;;;9.00;92.40;;;;;;4920706;29;20476;-29
2024/03/09 08:07:47;;;;;;;13.57;9.97;;;9.00;92.50;;;;;;4888360;29;20432;-28
2024/03/09 08:10:17;;;;;;;16.73;11.00;;;9.00;92.50;;;;;;4920447;29;20450;-32
2024/03/09 08:12:44;;;;;;;11.30;8.87;;;9.00;92.50;;;;;;4919638;29;20428;-29
2024/03/09 08:15:14;;;;;;;12.30;10.20;;;9.00;92.40;;;;;;4922843;29;20452;-29
2024/03/09 08:17:44;;;;;;;13.17;10.37;;;9.00;92.40;;;;;;4920566;29;20511;-31
2024/03/09 08:20:20;;;;;;;13.50;10.07;;;9.00;92.50;;;;;;4921559;29;20428;-32
2024/03/09 08:22:48;;;;;;;12.43;9.63;;;9.00;92.40;;;;;;4920380;29;20443;-29
2024/03/09 08:25:17;;;;;;;13.27;10.03;;;9.00;92.40;;;;;;4917901;29;20452;-32
2024/03/09 08:27:45;;;;;;;14.67;10.87;;;9.00;92.50;;;;;;4921496;29;20428;-30
2024/03/09 08:30:17;;;;;;;13.50;9.60;;;9.00;92.50;;;;;;4920120;29;20463;-30
2024/03/09 08:32:54;;;;;;;14.43;9.57;;;9.00;92.50;;;;;;4908435;29;21015;-32
2024/03/09 08:35:21;;;;;;;13.73;10.40;;;9.00;92.40;;;;;;4918162;29;21431;-32
2024/03/09 08:37:52;;;;;;;13.30;10.20;;;9.10;92.50;;;;;;4887965;29;20891;-31
2024/03/09 08:40:20;;;;;;;14.73;10.07;;;9.00;92.80;;;;;;4902603;29;21255;-34
2024/03/09 08:42:54;;;;;;;13.40;9.57;;;9.00;92.40;;;;;;4920963;29;21018;-29
2024/03/09 08:45:22;;;;;;;13.10;9.87;;;9.10;92.40;;;;;;4904822;29;20448;-29
2024/03/09 08:47:52;;;;;;;13.17;10.00;;;9.10;92.40;;;;;;4903070;29;20447;-31
2024/03/09 08:50:21;;;;;;;14.80;10.90;;;9.10;92.40;;;;;;4919279;29;20533;-29
2024/03/09 08:52:50;;;;;;;16.90;10.73;;;9.10;92.50;;;;;;4920305;29;20435;-30
2024/03/09 08:55:18;;;;;;;18.17;10.40;;;9.10;92.50;;;;;;4919894;29;20514;-30
2024/03/09 08:57:48;;;;;;;28.40;11.13;;;9.10;92.80;;;;;;4903018;29;20897;-29
2024/03/09 09:00:19;;;;;;;118.70;19.93;;;9.20;93.00;;;;;;4903296;29;20441;-31
2024/03/09 09:02:47;;;;;;;47.47;13.73;;;9.20;92.60;;;;;;4920031;29;20508;-29
2024/03/09 09:05:18;;;;;;;29.40;11.50;;;9.30;92.30;;;;;;4918718;29;20452;-29
2024/03/09 09:07:46;;;;;;;27.83;11.57;;;9.40;92.50;;;;;;4920171;29;20444;-29
2024/03/09 09:10:15;;;;;;;20.10;11.20;;;9.50;92.60;;;;;;4919848;29;20420;-30
2024/03/09 09:12:42;;;;;;;20.37;11.00;;;9.60;93.00;;;;;;4904978;29;20902;-30
2024/03/09 09:15:10;;;;;;;18.07;11.40;;;9.70;93.00;;;;;;4919719;29;20503;-32
2024/03/09 09:17:36;;;;;;;18.00;11.57;;;9.80;92.90;;;;;;4917603;29;20499;-29
2024/03/09 09:20:11;;;;;;;13.50;10.30;;;9.90;92.90;;;;;;4905621;29;20455;-32
2024/03/09 09:22:40;;;;;;;16.37;11.30;;;10.00;91.60;;;;;;4904343;29;20431;-31
2024/03/09 09:25:12;;;;;;;16.47;10.73;;;10.10;90.30;;;;;;4906199;29;20444;-30
2024/03/09 09:27:38;;;;;;;16.67;11.20;;;10.20;90.20;;;;;;4924456;29;20439;-28
2024/03/09 09:30:08;;;;;;;16.23;11.73;;;10.20;90.10;;;;;;4907654;29;20479;-29
2024/03/09 09:32:35;;;;;;;17.07;11.20;;;10.30;90.30;;;;;;4924689;29;20478;-28
2024/03/09 09:35:02;;;;;;;24.10;10.77;;;10.40;90.40;;;;;;4909086;29;20440;-29
2024/03/09 09:37:33;;;;;;;21.80;11.30;;;10.40;90.20;;;;;;4923270;29;20476;-32
2024/03/09 09:40:02;;;;;;;23.87;12.37;;;10.50;90.60;;;;;;4925333;29;20420;-28
2024/03/09 09:42:32;;;;;;;24.87;12.50;;;10.60;91.10;;;;;;4925057;29;20843;-26
2024/03/09 09:45:10;;;;;;;18.43;10.83;;;10.60;91.70;;;;;;4925171;29;20993;-29
2024/03/09 09:47:37;;;;;;;14.87;11.20;;;10.70;91.70;;;;;;4925377;29;20432;-28
2024/03/09 09:50:07;;;;;;;19.93;10.23;;;10.70;91.50;;;;;;4925533;29;20518;-30
2024/03/09 09:52:36;;;;;;;16.90;11.17;;;10.80;90.90;;;;;;4924614;29;20450;-31
2024/03/09 09:55:04;;;;;;;20.00;11.77;;;10.80;90.60;;;;;;4908093;29;20462;-28
2024/03/09 09:57:31;;;;;;;16.40;11.30;;;10.90;90.90;;;;;;4908121;29;20483;-30
2024/03/09 09:59:57;;;;;;;18.50;10.70;;;11.00;90.00;;;;;;4925623;29;20459;-28
2024/03/09 10:02:26;;;;;;;16.57;10.00;;;11.00;88.60;;;;;;4909154;29;20428;-34
2024/03/09 10:04:54;;;;;;;18.77;11.40;;;11.10;87.80;;;;;;4929317;29;20497;-28
2024/03/09 10:07:20;;;;;;;15.70;10.53;;;11.20;87.30;;;;;;4924586;29;20424;-30
2024/03/09 10:09:47;;;;;;;18.70;11.07;;;11.20;86.20;;;;;;4924868;29;20921;-30
2024/03/09 10:12:25;;;;;;;20.00;11.20;;;11.30;86.00;;;;;;4907792;29;20441;-27
2024/03/09 10:14:56;;;;;;;15.63;11.50;;;11.40;85.50;;;;;;4907638;29;20431;-31
2024/03/09 10:17:22;;;;;;;22.03;11.37;;;11.40;84.90;;;;;;4911105;29;20543;-29
2024/03/09 10:19:52;;;;;;;16.47;12.30;;;11.50;85.10;;;;;;4908497;29;20424;-29
2024/03/09 10:22:20;;;;;;;14.87;10.70;;;11.50;84.70;;;;;;4907223;29;20484;-31
2024/03/09 10:24:54;;;;;;;16.10;10.60;;;11.60;84.90;;;;;;4907488;29;20500;-32
2024/03/09 10:27:26;;;;;;;14.43;10.73;;;11.60;84.50;;;;;;4925110;29;20435;-28
2024/03/09 10:30:10;;;;;;;15.33;10.93;;;11.70;84.90;;;;;;4943401;29;20518;-27
2024/03/09 10:32:37;;;;;;;14.43;10.20;;;11.80;85.80;;;;;;4943407;29;20522;-28
2024/03/09 10:35:09;;;;;;;25.20;10.57;;;11.80;85.80;;;;;;4944384;28;20447;-29
2024/03/09 10:37:42;;;;;;;17.73;10.83;;;11.90;86.30;;;;;;4943495;29;20503;-27
2024/03/09 10:40:14;;;;;;;20.43;10.90;;;12.00;85.50;;;;;;4941749;29;20443;-25
2024/03/09 10:42:47;;;;;;;14.27;10.10;;;12.10;86.50;;;;;;4925064;29;20423;-29
2024/03/09 10:45:15;;;;;;;14.90;10.57;;;12.20;86.60;;;;;;4944016;28;20431;-28
2024/03/09 10:47:53;;;;;;;17.70;11.20;;;12.20;86.40;;;;;;4942745;29;20427;-31
2024/03/09 10:50:26;;;;;;;14.67;10.63;;;12.30;85.50;;;;;;4924354;29;20493;-32
2024/03/09 10:53:10;;;;;;;12.90;10.27;;;12.30;84.70;;;;;;4940986;29;21421;-30
2024/03/09 10:55:48;;;;;;;13.27;10.73;;;12.30;83.80;;;;;;4943838;28;20443;-26
2024/03/09 10:58:15;;;;;;;14.37;11.33;;;12.40;82.70;;;;;;4926139;29;20585;-29
2024/03/09 11:00:49;;;;;;;13.93;9.83;;;12.40;82.10;;;;;;4926880;29;21332;-30
2024/03/09 11:03:21;;;;;;;15.53;9.73;;;12.40;81.50;;;;;;4946699;29;21203;-30
2024/03/09 11:05:53;;;;;;;11.67;9.57;;;12.50;82.20;;;;;;4943889;28;20994;-29
2024/03/09 11:08:22;;;;;;;13.23;10.03;;;12.60;81.80;;;;;;4941981;29;20420;-30
2024/03/09 11:10:55;;;;;;;10.47;9.37;;;12.60;80.70;;;;;;4924611;29;20477;-29
2024/03/09 11:13:21;;;;;;;11.90;8.30;;;12.70;80.10;;;;;;4941104;29;20416;-29
2024/03/09 11:15:51;;;;;;;14.70;10.37;;;12.80;80.00;;;;;;4924643;29;20538;-28
2024/03/09 11:18:21;;;;;;;12.70;9.27;;;12.80;79.40;;;;;;4924842;29;20483;-31
2024/03/09 11:20:52;;;;;;;13.40;9.60;;;12.90;79.10;;;;;;4942163;29;20449;-33
2024/03/09 11:23:23;;;;;;;11.87;9.17;;;12.90;79.20;;;;;;4924331;29;20482;-30
2024/03/09 11:25:55;;;;;;;11.60;9.47;;;12.90;79.50;;;;;;4941886;28;20488;-28
2024/03/09 11:28:35;;;;;;;13.37;9.83;;;13.00;79.50;;;;;;4943899;29;20455;-30
2024/03/09 11:31:11;;;;;;;13.40;9.57;;;13.00;78.80;;;;;;4928389;29;21151;-30
2024/03/09 11:33:41;;;;;;;12.40;9.17;;;13.10;79.20;;;;;;4903215;29;20432;-30
2024/03/09 11:36:41;;;;;;;13.60;9.87;;;13.20;79.10;;;;;;4926770;29;20974;-31
2024/03/09 11:39:08;;;;;;;13.60;9.33;;;13.20;79.00;;;;;;4922857;29;20758;-29
2024/03/09 11:41:44;;;;;;;12.03;9.50;;;13.20;78.40;;;;;;4910264;29;21047;-29
2024/03/09 11:44:13;;;;;;;12.60;8.70;;;13.20;77.70;;;;;;4923919;29;20428;-29
2024/03/09 11:46:41;;;;;;;11.43;8.90;;;13.30;77.70;;;;;;4925084;29;20447;-30
2024/03/09 11:49:10;;;;;;;10.80;8.83;;;13.30;77.30;;;;;;4925372;29;20440;-29
2024/03/09 11:51:39;;;;;;;13.67;9.53;;;13.30;77.10;;;;;;4905759;29;20416;-30
2024/03/09 11:54:08;;;;;;;12.43;9.70;;;13.30;77.10;;;;;;4922186;29;20462;-28
2024/03/09 11:56:36;;;;;;;10.90;8.67;;;13.40;77.20;;;;;;4922388;29;20455;-29
2024/03/09 11:59:06;;;;;;;12.10;8.63;;;13.40;77.90;;;;;;4922346;29;20464;-28
2024/03/09 12:01:36;;;;;;;10.50;8.23;;;13.40;78.30;;;;;;4922141;29;20476;-27
2024/03/09 12:04:07;;;;;;;12.80;8.70;;;13.50;78.30;;;;;;4917531;29;21094;-28
2024/03/09 12:06:40;;;;;;;20.57;13.50;;;13.50;77.60;;;;;;4925373;29;20753;-29
2024/03/09 12:09:08;;;;;;;16.80;11.80;;;13.50;76.90;;;;;;4921933;29;20508;-30
2024/03/09 12:11:38;;;;;;;13.10;9.70;;;13.60;76.90;;;;;;4918617;29;20436;-29
2024/03/09 12:14:07;;;;;;;10.60;9.43;;;13.60;77.80;;;;;;4906768;29;20452;-29
2024/03/09 12:16:33;;;;;;;10.13;8.00;;;13.70;77.10;;;;;;4921756;28;20491;-28
2024/03/09 12:19:06;;;;;;;10.60;8.47;;;13.70;77.10;;;;;;4906383;29;20472;-32
2024/03/09 12:21:35;;;;;;;13.20;8.50;;;13.80;77.10;;;;;;4920705;29;20460;-29
2024/03/09 12:24:02;;;;;;;13.37;9.30;;;13.80;76.40;;;;;;4922034;29;20994;-31
2024/03/09 12:26:28;;;;;;;12.70;8.93;;;13.80;76.20;;;;;;4923077;29;20670;-28
2024/03/09 12:28:59;;;;;;;12.87;9.37;;;13.80;76.30;;;;;;4921161;29;20586;-28
2024/03/09 12:31:28;;;;;;;12.60;8.70;;;13.90;76.50;;;;;;4920765;29;20459;-30
2024/03/09 12:33:55;;;;;;;11.23;8.10;;;13.90;76.10;;;;;;4904550;29;20494;-28
2024/03/09 12:36:23;;;;;;;11.90;8.50;;;14.00;76.70;;;;;;4905476;29;20553;-28
2024/03/09 12:38:50;;;;;;;9.67;8.27;;;14.00;76.30;;;;;;4921804;29;21358;-30
2024/03/09 12:41:30;;;;;;;12.50;8.17;;;14.10;76.40;;;;;;4904272;29;20432;-30
2024/03/09 12:44:04;;;;;;;10.53;8.10;;;13.90;75.70;;;;;;4919564;29;20947;-30
2024/03/09 12:46:33;;;;;;;9.83;7.77;;;14.10;75.80;;;;;;4921204;29;20523;-29
2024/03/09 12:49:13;;;;;;;13.23;9.50;;;14.10;75.80;;;;;;4916322;29;20479;-29